Time;durP1;ratioP1;P1;durP2;ratioP2;P2;SDS_P1;SDS_P2;PMS_P1;PMS_P2;Temp;Humidity;BMP_temperature;BMP_pressure;BME280_temperature;BME280_humidity;BME280_pressure;Samples;Min_cycle;Max_cycle;Signal;HPM_P1;HPM_P2
2023/07/21 00:01:46;;;;;;;1.03;0.87;;;17.30;99.90;;;;;;5109881;27;20293;-75
2023/07/21 00:04:14;;;;;;;2.30;0.70;;;17.30;99.90;;;;;;5109608;27;20275;-76
2023/07/21 00:06:43;;;;;;;1.30;1.00;;;17.20;99.90;;;;;;5122142;27;20729;-75
2023/07/21 00:09:10;;;;;;;1.40;1.10;;;17.30;99.90;;;;;;5126931;27;20304;-79
2023/07/21 00:11:38;;;;;;;0.83;0.77;;;17.30;99.90;;;;;;5126778;27;20205;-78
2023/07/21 00:14:05;;;;;;;1.73;1.00;;;17.20;99.90;;;;;;5110830;27;20258;-78
2023/07/21 00:16:33;;;;;;;1.73;0.80;;;17.20;99.90;;;;;;5107580;27;20206;-75
2023/07/21 00:19:01;;;;;;;1.10;1.00;;;17.10;99.90;;;;;;5107172;27;20206;-74
2023/07/21 00:21:29;;;;;;;1.53;0.90;;;17.10;99.90;;;;;;5105805;28;20305;-74
2023/07/21 00:23:56;;;;;;;0.77;0.77;;;17.10;99.90;;;;;;5105375;28;20226;-74
2023/07/21 00:26:24;;;;;;;1.13;0.93;;;17.10;99.90;;;;;;5123146;27;20197;-74
2023/07/21 00:28:51;;;;;;;1.63;1.10;;;17.00;99.90;;;;;;5125910;27;20197;-74
2023/07/21 00:31:18;;;;;;;2.33;1.00;;;17.10;99.90;;;;;;5125049;27;20604;-74
2023/07/21 00:33:45;;;;;;;1.30;1.03;;;17.00;99.90;;;;;;5123813;27;20206;-74
2023/07/21 00:36:13;;;;;;;1.00;1.00;;;17.10;99.90;;;;;;5126053;27;20261;-74
2023/07/21 00:38:40;;;;;;;1.30;1.00;;;17.00;99.90;;;;;;5113121;27;20241;-74
2023/07/21 00:41:07;;;;;;;1.30;1.20;;;16.80;99.90;;;;;;5123226;27;20208;-74
2023/07/21 00:43:34;;;;;;;1.07;0.93;;;16.80;99.90;;;;;;5121638;27;20605;-74
2023/07/21 00:46:01;;;;;;;2.00;1.10;;;16.80;99.90;;;;;;5138254;27;20211;-74
2023/07/21 00:48:28;;;;;;;1.07;1.07;;;16.80;99.90;;;;;;5107975;27;20295;-74
2023/07/21 00:50:55;;;;;;;0.93;0.67;;;16.70;99.90;;;;;;5105490;28;20224;-74
2023/07/21 00:53:25;;;;;;;2.47;0.90;;;16.70;99.90;;;;;;5105639;28;20273;-74
2023/07/21 00:55:52;;;;;;;1.13;0.80;;;16.80;99.90;;;;;;5105408;28;20340;-74
2023/07/21 00:58:22;;;;;;;1.13;1.00;;;16.70;99.90;;;;;;5105213;28;20242;-76
2023/07/21 01:00:49;;;;;;;1.00;0.90;;;16.70;99.90;;;;;;5105645;28;20206;-76
2023/07/21 01:03:18;;;;;;;1.40;0.80;;;16.60;99.90;;;;;;5105332;28;20629;-76
2023/07/21 01:05:49;;;;;;;1.00;0.90;;;16.60;99.90;;;;;;5105710;28;20392;-77
2023/07/21 01:08:17;;;;;;;0.97;0.87;;;16.60;99.90;;;;;;5123702;27;20260;-77
2023/07/21 01:10:46;;;;;;;3.37;1.10;;;16.60;99.90;;;;;;5126218;28;20270;-76
2023/07/21 01:13:14;;;;;;;3.37;1.00;;;16.50;99.90;;;;;;5125924;27;20589;-76
2023/07/21 01:15:49;;;;;;;1.50;1.30;;;16.50;99.90;;;;;;5125611;28;20205;-74
2023/07/21 01:18:17;;;;;;;1.20;1.10;;;16.50;99.90;;;;;;5135243;27;20189;-75
2023/07/21 01:20:46;;;;;;;1.27;1.20;;;16.50;99.90;;;;;;5125458;28;20321;-74
2023/07/21 01:23:21;;;;;;;2.77;1.17;;;16.50;99.90;;;;;;5126111;28;20297;-75
2023/07/21 01:25:52;;;;;;;1.53;1.07;;;16.50;99.90;;;;;;5125749;28;20307;-73
2023/07/21 01:28:19;;;;;;;1.10;1.00;;;16.50;99.90;;;;;;5125035;27;20651;-74
2023/07/21 01:30:48;;;;;;;1.30;1.20;;;16.50;99.90;;;;;;5125911;28;20227;-74
2023/07/21 01:33:18;;;;;;;1.87;0.80;;;16.40;99.90;;;;;;5125639;28;20225;-74
2023/07/21 01:35:48;;;;;;;1.13;1.00;;;16.40;99.90;;;;;;5119382;28;20220;-74
2023/07/21 01:38:16;;;;;;;1.47;1.00;;;16.40;99.90;;;;;;5108373;28;20202;-74
2023/07/21 01:40:44;;;;;;;0.83;0.80;;;16.40;99.90;;;;;;5109313;28;20289;-75
2023/07/21 01:43:14;;;;;;;1.43;1.10;;;16.40;99.90;;;;;;5123252;27;20232;-75
2023/07/21 01:45:41;;;;;;;0.80;0.80;;;16.40;99.90;;;;;;5133839;27;20286;-75
2023/07/21 01:48:09;;;;;;;2.60;1.33;;;16.40;99.90;;;;;;5117076;27;20206;-75
2023/07/21 01:50:40;;;;;;;1.90;1.20;;;16.30;99.90;;;;;;5109179;28;20566;-76
2023/07/21 01:53:13;;;;;;;1.33;1.00;;;16.30;99.90;;;;;;5109452;28;20221;-75
2023/07/21 01:55:45;;;;;;;3.33;1.63;;;16.30;99.90;;;;;;5109459;28;20718;-75
2023/07/21 01:58:15;;;;;;;1.63;1.00;;;16.20;99.90;;;;;;5108552;28;20321;-75
2023/07/21 02:00:44;;;;;;;1.30;1.10;;;16.10;99.90;;;;;;5109043;28;20220;-76
2023/07/21 02:03:12;;;;;;;1.57;1.00;;;16.10;99.90;;;;;;5119543;27;20296;-76
2023/07/21 02:05:39;;;;;;;1.63;1.07;;;16.10;99.90;;;;;;5109195;27;20923;-75
2023/07/21 02:08:06;;;;;;;1.20;1.20;;;16.10;99.90;;;;;;5109028;28;20977;-75
2023/07/21 02:10:33;;;;;;;1.23;1.10;;;16.10;99.90;;;;;;5125340;27;20206;-75
2023/07/21 02:13:00;;;;;;;1.30;0.90;;;16.10;99.90;;;;;;5129444;27;20205;-75
2023/07/21 02:15:28;;;;;;;1.23;1.13;;;16.10;99.90;;;;;;5129763;27;20293;-76
2023/07/21 02:17:55;;;;;;;0.90;0.70;;;16.10;99.90;;;;;;5129560;27;20735;-75
2023/07/21 02:20:22;;;;;;;1.00;1.00;;;16.20;99.90;;;;;;5127944;27;20296;-75
2023/07/21 02:22:49;;;;;;;1.00;0.90;;;16.10;99.90;;;;;;5129869;27;20285;-76
2023/07/21 02:25:15;;;;;;;1.30;1.10;;;16.10;99.90;;;;;;5121588;27;20328;-76
2023/07/21 02:27:44;;;;;;;0.90;0.90;;;16.20;99.90;;;;;;5109019;28;20229;-75
2023/07/21 02:30:11;;;;;;;2.30;1.17;;;16.20;99.90;;;;;;5108582;28;20315;-75
2023/07/21 02:32:40;;;;;;;4.87;1.10;;;16.20;99.90;;;;;;5108704;28;20301;-76
2023/07/21 02:35:08;;;;;;;2.80;1.30;;;16.20;99.90;;;;;;5114127;27;20985;-75
2023/07/21 02:37:36;;;;;;;1.20;1.03;;;16.10;99.90;;;;;;5129224;27;20205;-76
2023/07/21 02:40:06;;;;;;;1.10;1.10;;;16.10;99.90;;;;;;5128930;27;20209;-76
2023/07/21 02:42:34;;;;;;;0.97;0.97;;;16.00;99.90;;;;;;5128749;27;20208;-78
2023/07/21 02:45:01;;;;;;;2.90;1.50;;;16.00;99.90;;;;;;5129227;27;20260;-78
2023/07/21 02:47:28;;;;;;;1.43;1.23;;;16.00;99.90;;;;;;5148837;27;20745;-78
2023/07/21 02:49:56;;;;;;;2.57;1.27;;;16.00;99.90;;;;;;5135471;27;20891;-79
2023/07/21 02:52:23;;;;;;;1.40;1.20;;;15.90;99.90;;;;;;5108244;28;20250;-78
2023/07/21 02:54:50;;;;;;;2.20;1.20;;;15.90;99.90;;;;;;5113507;27;20204;-78
2023/07/21 02:57:17;;;;;;;1.03;1.03;;;15.90;99.90;;;;;;5128354;27;20261;-74
2023/07/21 02:59:43;;;;;;;1.07;1.07;;;15.80;99.90;;;;;;5127598;27;20316;-73
2023/07/21 03:02:11;;;;;;;1.20;1.10;;;15.80;99.90;;;;;;5127947;27;20205;-73
2023/07/21 03:04:42;;;;;;;2.13;1.20;;;15.80;99.90;;;;;;5137528;27;20303;-73
2023/07/21 03:07:11;;;;;;;2.23;1.50;;;15.70;99.90;;;;;;5115240;27;20233;-73
2023/07/21 03:09:38;;;;;;;1.73;1.63;;;15.70;99.90;;;;;;5107352;28;20205;-73
2023/07/21 03:12:06;;;;;;;1.63;1.20;;;15.70;99.90;;;;;;5107065;28;20739;-74
2023/07/21 03:14:34;;;;;;;1.20;1.20;;;15.70;99.90;;;;;;5107435;27;20627;-73
2023/07/21 03:17:01;;;;;;;3.20;1.60;;;15.70;99.90;;;;;;5127856;27;20667;-75
2023/07/21 03:19:29;;;;;;;2.10;1.27;;;15.70;99.90;;;;;;5118393;27;20292;-76
2023/07/21 03:21:57;;;;;;;2.53;1.50;;;15.50;99.90;;;;;;5131150;27;20220;-77
2023/07/21 03:24:26;;;;;;;2.37;1.57;;;15.50;99.90;;;;;;5148635;27;20698;-76
2023/07/21 03:26:52;;;;;;;2.80;1.80;;;15.50;99.90;;;;;;5148577;27;20287;-76
2023/07/21 03:29:19;;;;;;;2.13;1.47;;;15.50;99.90;;;;;;5148082;27;20693;-76
2023/07/21 03:31:46;;;;;;;3.03;1.33;;;15.50;99.90;;;;;;5148360;27;20630;-76
2023/07/21 03:34:14;;;;;;;1.97;1.60;;;15.50;99.90;;;;;;5146925;27;20216;-76
2023/07/21 03:36:41;;;;;;;1.50;1.40;;;15.50;99.90;;;;;;5106961;27;20198;-76
2023/07/21 03:39:08;;;;;;;1.93;1.20;;;15.50;99.90;;;;;;5107209;28;20293;-76
2023/07/21 03:41:36;;;;;;;1.27;1.13;;;15.50;99.90;;;;;;5120407;27;20296;-76
2023/07/21 03:44:04;;;;;;;1.77;1.60;;;15.50;99.90;;;;;;5126575;27;20321;-76
2023/07/21 03:46:31;;;;;;;3.40;1.50;;;15.50;99.90;;;;;;5117208;27;20205;-76
2023/07/21 03:48:58;;;;;;;1.70;1.37;;;15.50;99.90;;;;;;5112852;27;20213;-76
2023/07/21 03:51:26;;;;;;;1.50;1.40;;;15.50;99.90;;;;;;5114940;27;20297;-76
2023/07/21 03:53:58;;;;;;;2.07;1.60;;;15.50;99.90;;;;;;5106644;28;20771;-76
2023/07/21 03:56:25;;;;;;;3.23;1.50;;;15.50;99.90;;;;;;5106572;28;20395;-76
2023/07/21 03:58:55;;;;;;;1.50;1.40;;;15.50;99.90;;;;;;5105991;28;20261;-76
2023/07/21 04:01:21;;;;;;;4.03;1.50;;;15.50;99.90;;;;;;5106460;28;20229;-77
2023/07/21 04:03:48;;;;;;;2.40;2.00;;;15.50;99.90;;;;;;5125911;27;20205;-77
2023/07/21 04:06:17;;;;;;;1.40;1.30;;;15.50;99.90;;;;;;5119564;27;20190;-77
2023/07/21 04:08:44;;;;;;;1.87;1.50;;;15.60;99.90;;;;;;5123001;27;20755;-74
2023/07/21 04:11:11;;;;;;;1.63;1.53;;;15.60;99.90;;;;;;5126121;27;20205;-74
2023/07/21 04:13:38;;;;;;;4.23;1.53;;;15.60;99.90;;;;;;5126147;27;20344;-74
2023/07/21 04:16:06;;;;;;;3.67;1.63;;;15.60;99.90;;;;;;5121487;27;20297;-74
2023/07/21 04:18:33;;;;;;;6.13;1.97;;;15.70;99.90;;;;;;5132658;27;20209;-74
2023/07/21 04:21:00;;;;;;;4.30;1.53;;;15.70;99.90;;;;;;5115837;27;20212;-76
2023/07/21 04:23:27;;;;;;;3.93;1.37;;;15.80;99.90;;;;;;5105907;28;20305;-76
2023/07/21 04:25:54;;;;;;;1.53;1.43;;;15.90;99.90;;;;;;5105961;28;20242;-76
2023/07/21 04:28:21;;;;;;;2.63;1.60;;;16.00;99.90;;;;;;5105915;28;20233;-76
2023/07/21 04:30:52;;;;;;;1.87;1.57;;;16.10;99.90;;;;;;5120732;27;20205;-76
2023/07/21 04:33:20;;;;;;;1.60;1.50;;;16.20;99.90;;;;;;5126865;27;20217;-76
2023/07/21 04:35:47;;;;;;;1.50;1.40;;;16.30;99.90;;;;;;5126201;27;20296;-75
2023/07/21 04:38:15;;;;;;;1.77;1.10;;;16.40;99.90;;;;;;5126629;27;20928;-75
2023/07/21 04:40:44;;;;;;;2.00;1.40;;;16.40;99.90;;;;;;5126206;27;20212;-75
2023/07/21 04:43:11;;;;;;;2.17;1.10;;;16.50;99.90;;;;;;5112216;27;20208;-75
2023/07/21 04:45:41;;;;;;;3.40;1.50;;;16.60;99.90;;;;;;5107944;27;20768;-74
2023/07/21 04:48:08;;;;;;;1.20;1.20;;;16.70;99.90;;;;;;5125925;27;20292;-75
2023/07/21 04:50:36;;;;;;;1.13;1.03;;;16.70;99.90;;;;;;5124698;27;20232;-73
2023/07/21 04:53:03;;;;;;;1.63;1.33;;;16.70;99.90;;;;;;5125837;27;20205;-76
2023/07/21 04:55:30;;;;;;;1.90;1.40;;;16.80;99.90;;;;;;5126180;27;20285;-75
2023/07/21 04:57:57;;;;;;;1.93;1.30;;;16.80;99.90;;;;;;5125786;27;20237;-74
2023/07/21 05:00:24;;;;;;;2.10;1.30;;;16.90;99.90;;;;;;5106119;28;20644;-75
2023/07/21 05:02:51;;;;;;;1.20;1.10;;;16.90;99.90;;;;;;5105313;28;20208;-75
2023/07/21 05:05:18;;;;;;;1.73;1.27;;;17.00;99.90;;;;;;5105552;28;20236;-75
2023/07/21 05:07:46;;;;;;;0.87;0.87;;;17.00;99.90;;;;;;5105825;28;20293;-75
2023/07/21 05:10:13;;;;;;;1.00;1.00;;;17.00;99.90;;;;;;5111404;28;20292;-75
2023/07/21 05:12:40;;;;;;;5.23;1.33;;;17.10;99.90;;;;;;5129772;27;20415;-76
2023/07/21 05:15:08;;;;;;;1.50;0.87;;;17.10;99.90;;;;;;5114583;27;20204;-76
2023/07/21 05:17:35;;;;;;;2.30;1.00;;;17.20;99.90;;;;;;5110029;28;20218;-76
2023/07/21 05:20:03;;;;;;;1.23;0.87;;;17.20;99.90;;;;;;5139769;27;20213;-76
2023/07/21 05:22:30;;;;;;;2.67;1.00;;;17.20;99.90;;;;;;5151263;27;20616;-77
2023/07/21 05:24:58;;;;;;;1.20;1.10;;;17.20;99.90;;;;;;5143152;27;20264;-79
2023/07/21 05:27:25;;;;;;;4.43;1.27;;;17.20;99.90;;;;;;5130350;27;20201;-79
2023/07/21 05:29:52;;;;;;;1.93;0.93;;;17.20;99.90;;;;;;5127815;27;20206;-79
2023/07/21 05:32:19;;;;;;;2.97;1.03;;;17.20;99.90;;;;;;5128062;27;20300;-78
2023/07/21 05:34:49;;;;;;;2.30;1.10;;;17.20;99.90;;;;;;5129939;27;20236;-79
2023/07/21 05:37:16;;;;;;;1.97;1.10;;;17.20;99.90;;;;;;5129407;27;20222;-79
2023/07/21 05:39:43;;;;;;;1.23;1.13;;;17.30;99.90;;;;;;5129894;27;20649;-77
2023/07/21 05:42:11;;;;;;;1.37;1.00;;;17.30;99.90;;;;;;5123790;27;20900;-77
2023/07/21 05:44:38;;;;;;;1.73;0.90;;;17.30;99.90;;;;;;5108955;28;20265;-77
2023/07/21 05:47:05;;;;;;;1.77;0.90;;;17.40;99.90;;;;;;5108976;28;20395;-77
2023/07/21 05:49:33;;;;;;;0.90;0.90;;;17.40;99.90;;;;;;5131778;27;20307;-75
2023/07/21 05:52:00;;;;;;;2.17;0.97;;;17.40;99.90;;;;;;5117301;27;20940;-76
2023/07/21 05:54:27;;;;;;;1.37;1.20;;;17.40;99.90;;;;;;5128073;27;20524;-76
2023/07/21 05:56:56;;;;;;;1.73;0.87;;;17.50;99.90;;;;;;5109034;28;20222;-76
2023/07/21 05:59:24;;;;;;;2.83;1.10;;;17.50;99.90;;;;;;5108848;28;20653;-76
2023/07/21 06:01:53;;;;;;;1.60;1.00;;;17.50;99.90;;;;;;5108611;28;20695;-76
2023/07/21 06:04:19;;;;;;;2.20;1.13;;;17.50;99.90;;;;;;5109334;27;20199;-76
2023/07/21 06:06:46;;;;;;;2.60;1.20;;;17.60;99.90;;;;;;5108419;28;20287;-76
2023/07/21 06:09:13;;;;;;;2.03;1.17;;;17.60;99.90;;;;;;5108946;28;20241;-77
2023/07/21 06:11:40;;;;;;;1.63;1.20;;;17.50;99.90;;;;;;5128599;27;20284;-77
2023/07/21 06:14:07;;;;;;;1.73;1.63;;;17.50;99.90;;;;;;5128991;27;20206;-77
2023/07/21 06:16:36;;;;;;;2.17;1.20;;;17.60;99.90;;;;;;5129092;27;20730;-77
2023/07/21 06:19:03;;;;;;;1.40;1.20;;;17.60;99.90;;;;;;5128726;27;20714;-77
2023/07/21 06:21:29;;;;;;;1.07;1.00;;;17.60;99.90;;;;;;5128692;27;20711;-77
2023/07/21 06:23:56;;;;;;;2.83;1.30;;;17.60;99.90;;;;;;5116005;27;20627;-77
2023/07/21 06:26:23;;;;;;;1.20;1.10;;;17.60;99.90;;;;;;5108376;28;20317;-77
2023/07/21 06:28:51;;;;;;;1.40;1.20;;;17.60;99.90;;;;;;5107889;28;20202;-77
2023/07/21 06:31:17;;;;;;;1.63;1.53;;;17.50;99.90;;;;;;5107870;28;20684;-77
2023/07/21 06:33:46;;;;;;;2.03;1.43;;;17.50;99.90;;;;;;5108012;28;20973;-77
2023/07/21 06:36:13;;;;;;;2.50;1.23;;;17.50;99.90;;;;;;5108466;28;20271;-77
2023/07/21 06:38:40;;;;;;;1.60;1.47;;;17.60;99.90;;;;;;5108505;28;20643;-77
2023/07/21 06:41:09;;;;;;;1.47;1.33;;;17.60;99.90;;;;;;5108140;28;20202;-77
2023/07/21 06:43:36;;;;;;;2.07;1.30;;;17.60;99.90;;;;;;5108121;28;20632;-77
2023/07/21 06:46:03;;;;;;;1.73;1.43;;;17.70;99.90;;;;;;5107617;28;20707;-77
2023/07/21 06:48:31;;;;;;;2.20;1.50;;;17.70;99.90;;;;;;5110377;27;20234;-77
2023/07/21 06:50:59;;;;;;;1.30;1.20;;;17.70;99.90;;;;;;5133602;27;20206;-78
2023/07/21 06:53:26;;;;;;;2.93;1.53;;;17.80;99.90;;;;;;5119663;27;20292;-76
2023/07/21 06:55:54;;;;;;;1.50;1.40;;;17.80;99.90;;;;;;5128071;27;20287;-76
2023/07/21 06:58:21;;;;;;;3.30;1.30;;;17.80;99.90;;;;;;5127678;27;20301;-77
2023/07/21 07:00:48;;;;;;;1.20;1.13;;;17.80;99.90;;;;;;5127713;27;20773;-75
2023/07/21 07:03:15;;;;;;;4.13;1.57;;;17.80;99.90;;;;;;5120514;27;20626;-76
2023/07/21 07:05:45;;;;;;;1.93;1.50;;;17.80;99.90;;;;;;5121699;27;20677;-77
2023/07/21 07:08:14;;;;;;;1.60;1.30;;;17.80;99.90;;;;;;5128518;27;20744;-76
2023/07/21 07:10:41;;;;;;;1.47;1.37;;;17.80;99.90;;;;;;5127519;27;20205;-77
2023/07/21 07:13:08;;;;;;;1.67;1.27;;;17.70;99.90;;;;;;5118741;27;20276;-76
2023/07/21 07:15:35;;;;;;;2.60;1.40;;;17.70;99.90;;;;;;5129291;27;20294;-75
2023/07/21 07:18:03;;;;;;;1.53;1.20;;;17.70;99.90;;;;;;5119311;27;20610;-76
2023/07/21 07:20:30;;;;;;;1.57;1.47;;;17.80;99.90;;;;;;5113813;27;20210;-75
2023/07/21 07:22:57;;;;;;;1.70;1.60;;;17.80;99.90;;;;;;5121790;27;20284;-75
2023/07/21 07:25:25;;;;;;;2.33;1.63;;;17.80;99.90;;;;;;5127373;27;20316;-76
2023/07/21 07:27:53;;;;;;;1.73;1.63;;;17.80;99.90;;;;;;5127122;27;20221;-76
2023/07/21 07:30:20;;;;;;;2.87;2.00;;;17.80;99.90;;;;;;5127531;27;20209;-76
2023/07/21 07:32:47;;;;;;;3.83;1.80;;;17.80;99.90;;;;;;5118598;27;20217;-76
2023/07/21 07:35:16;;;;;;;2.37;2.03;;;17.80;99.90;;;;;;5111760;27;20310;-74
2023/07/21 07:37:43;;;;;;;3.83;2.13;;;17.80;99.90;;;;;;5124902;27;20284;-74
2023/07/21 07:40:11;;;;;;;3.13;2.30;;;17.80;99.90;;;;;;5112065;27;20205;-73
2023/07/21 07:42:40;;;;;;;2.97;2.13;;;17.80;99.90;;;;;;5120371;27;20284;-74
2023/07/21 07:45:07;;;;;;;2.40;2.20;;;17.80;99.90;;;;;;5112750;27;20573;-73
2023/07/21 07:47:34;;;;;;;2.77;1.80;;;17.80;99.90;;;;;;5123668;27;20210;-73
2023/07/21 07:50:01;;;;;;;3.80;1.90;;;17.80;99.90;;;;;;5121799;27;20202;-76
2023/07/21 07:52:28;;;;;;;2.03;1.70;;;17.90;99.90;;;;;;5114485;27;20217;-76
2023/07/21 07:54:55;;;;;;;3.03;2.30;;;17.90;99.90;;;;;;5126921;27;20229;-77
2023/07/21 07:57:26;;;;;;;3.67;2.33;;;17.90;99.90;;;;;;5115903;27;20622;-76
2023/07/21 07:59:54;;;;;;;5.27;2.67;;;18.00;99.90;;;;;;5114885;27;20329;-78
2023/07/21 08:02:21;;;;;;;3.03;2.50;;;18.10;99.90;;;;;;5118218;27;20236;-78
2023/07/21 08:04:48;;;;;;;4.03;2.50;;;18.10;99.90;;;;;;5135177;27;20205;-78
2023/07/21 08:07:16;;;;;;;5.07;3.13;;;18.20;99.90;;;;;;5116279;27;20744;-79
2023/07/21 08:09:43;;;;;;;3.90;2.40;;;18.30;99.90;;;;;;5108051;27;20672;-78
2023/07/21 08:12:09;;;;;;;3.00;2.60;;;18.40;99.90;;;;;;5126666;27;20210;-78
2023/07/21 08:14:36;;;;;;;3.33;2.40;;;18.50;99.90;;;;;;5123298;27;20205;-76
2023/07/21 08:17:05;;;;;;;2.50;2.30;;;18.40;99.90;;;;;;5120421;27;20214;-76
2023/07/21 08:19:32;;;;;;;5.47;2.53;;;18.50;99.90;;;;;;5117021;27;20194;-76
2023/07/21 08:22:04;;;;;;;3.20;2.50;;;18.60;99.90;;;;;;5125722;27;20206;-77
2023/07/21 08:24:31;;;;;;;2.60;2.30;;;18.70;99.90;;;;;;5129147;27;20200;-79
2023/07/21 08:26:59;;;;;;;4.10;2.57;;;18.70;99.90;;;;;;5147179;27;20308;-79
2023/07/21 08:29:26;;;;;;;2.57;2.13;;;18.70;99.90;;;;;;5130971;27;20217;-79
2023/07/21 08:31:53;;;;;;;2.70;2.37;;;18.70;99.90;;;;;;5126173;27;20208;-79
2023/07/21 08:34:21;;;;;;;4.83;2.20;;;18.80;99.90;;;;;;5119060;27;20959;-76
2023/07/21 08:36:48;;;;;;;2.57;2.03;;;18.80;99.90;;;;;;5107906;27;20289;-75
2023/07/21 08:39:15;;;;;;;3.43;2.27;;;18.80;99.90;;;;;;5136850;27;20295;-81
2023/07/21 08:41:46;;;;;;;5.97;2.30;;;18.80;99.90;;;;;;5127877;27;20236;-82
2023/07/21 08:44:15;;;;;;;3.73;2.33;;;18.90;99.90;;;;;;5115681;27;20305;-81
2023/07/21 08:46:42;;;;;;;2.10;1.90;;;18.90;99.90;;;;;;5108364;27;20228;-80
2023/07/21 08:49:09;;;;;;;2.40;2.07;;;18.90;99.90;;;;;;5125437;27;20212;-80
2023/07/21 08:51:38;;;;;;;2.77;2.17;;;18.90;99.90;;;;;;5124979;27;20299;-81
2023/07/21 08:54:05;;;;;;;5.50;2.40;;;18.80;99.90;;;;;;5125663;27;20213;-81
2023/07/21 08:56:32;;;;;;;2.80;2.60;;;18.70;99.90;;;;;;5126669;27;20308;-80
2023/07/21 08:58:58;;;;;;;2.10;2.00;;;18.80;99.90;;;;;;5125092;27;20257;-81
2023/07/21 09:01:26;;;;;;;5.07;2.37;;;18.80;99.90;;;;;;5124432;28;20209;-82
2023/07/21 09:03:52;;;;;;;3.83;2.37;;;18.80;99.90;;;;;;5104484;28;20202;-82
2023/07/21 09:06:20;;;;;;;2.90;2.30;;;18.90;99.90;;;;;;5104612;28;20233;-81
2023/07/21 09:08:48;;;;;;;2.70;2.50;;;18.90;99.90;;;;;;5104721;28;20205;-81
2023/07/21 09:11:16;;;;;;;3.13;2.50;;;18.90;99.90;;;;;;5104749;28;20217;-81
2023/07/21 09:13:52;;;;;;;5.03;2.50;;;18.90;99.90;;;;;;5112188;28;20222;-81
2023/07/21 09:16:19;;;;;;;3.00;2.07;;;18.90;99.90;;;;;;5117451;28;20209;-81
2023/07/21 09:18:48;;;;;;;4.23;2.40;;;18.90;99.90;;;;;;5122947;27;20208;-80
2023/07/21 09:21:20;;;;;;;4.17;2.40;;;18.90;99.90;;;;;;5144531;27;20216;-82
2023/07/21 09:23:48;;;;;;;5.23;2.63;;;18.90;99.90;;;;;;5115354;27;20213;-82
2023/07/21 09:26:21;;;;;;;5.53;2.60;;;18.90;99.90;;;;;;5143466;27;20217;-81
2023/07/21 09:28:48;;;;;;;5.77;2.97;;;19.00;99.90;;;;;;5112855;27;20198;-81
2023/07/21 09:31:16;;;;;;;5.93;2.80;;;19.00;99.90;;;;;;5124479;28;20292;-81
2023/07/21 09:33:44;;;;;;;3.37;2.87;;;19.00;99.90;;;;;;5124370;28;20197;-80
2023/07/21 09:36:13;;;;;;;4.77;2.90;;;19.00;99.90;;;;;;5104095;28;20313;-81
2023/07/21 09:38:41;;;;;;;4.80;2.60;;;19.00;99.90;;;;;;5103657;28;20206;-81
2023/07/21 09:41:11;;;;;;;4.63;2.40;;;19.00;99.90;;;;;;5119866;28;20214;-81
2023/07/21 09:43:39;;;;;;;3.73;2.80;;;19.00;99.90;;;;;;5103501;28;20752;-81
2023/07/21 09:46:08;;;;;;;3.23;2.63;;;19.00;99.90;;;;;;5103571;28;20644;-81
2023/07/21 09:48:36;;;;;;;3.30;2.50;;;19.10;99.90;;;;;;5114548;27;20198;-81
2023/07/21 09:51:07;;;;;;;4.30;2.67;;;19.10;99.90;;;;;;5124762;28;20672;-81
2023/07/21 09:53:38;;;;;;;3.77;2.57;;;19.10;99.90;;;;;;5111961;28;20301;-81
2023/07/21 09:56:06;;;;;;;2.67;2.43;;;19.10;99.90;;;;;;5119001;27;20233;-81
2023/07/21 09:58:36;;;;;;;2.90;2.60;;;19.10;99.90;;;;;;5125869;27;20237;-81
2023/07/21 10:01:04;;;;;;;3.27;2.63;;;19.20;99.90;;;;;;5128857;27;21024;-81
2023/07/21 10:03:32;;;;;;;3.93;2.90;;;19.20;99.90;;;;;;5128212;27;20284;-80
2023/07/21 10:06:00;;;;;;;3.77;2.57;;;19.20;99.90;;;;;;5139450;27;20757;-80
2023/07/21 10:08:29;;;;;;;5.60;2.93;;;19.30;99.90;;;;;;5122916;27;20288;-80
2023/07/21 10:10:58;;;;;;;3.60;2.77;;;19.30;99.90;;;;;;5107733;28;20609;-80
2023/07/21 10:13:26;;;;;;;4.23;3.47;;;19.40;99.90;;;;;;5112332;27;20660;-81
2023/07/21 10:16:00;;;;;;;6.23;3.60;;;19.40;99.90;;;;;;5125074;27;20198;-80
2023/07/21 10:18:27;;;;;;;3.80;3.17;;;19.50;99.90;;;;;;5110593;27;20201;-80
2023/07/21 10:20:56;;;;;;;3.57;3.20;;;19.60;99.90;;;;;;5129278;27;20201;-80
2023/07/21 10:23:25;;;;;;;4.00;3.60;;;19.60;99.90;;;;;;5128408;27;20208;-80
2023/07/21 10:26:03;;;;;;;4.67;3.50;;;19.70;99.90;;;;;;5120452;27;20304;-81
2023/07/21 10:28:42;;;;;;;5.10;2.80;;;19.70;99.90;;;;;;5106879;28;20194;-80
2023/07/21 10:31:39;;;;;;;4.40;3.03;;;19.80;99.90;;;;;;5106706;28;20194;-81
2023/07/21 10:34:11;;;;;;;4.30;3.10;;;19.80;99.90;;;;;;5110052;27;20204;-81
2023/07/21 10:36:44;;;;;;;4.13;3.13;;;19.90;99.90;;;;;;5118117;27;20233;-82
2023/07/21 10:39:12;;;;;;;3.63;2.90;;;19.90;99.90;;;;;;5107012;27;20206;-81
2023/07/21 10:41:39;;;;;;;3.37;2.90;;;19.90;99.90;;;;;;5137596;27;20212;-81
2023/07/21 10:44:07;;;;;;;3.93;3.10;;;20.00;99.90;;;;;;5127212;27;20206;-81
2023/07/21 10:46:40;;;;;;;3.77;2.83;;;20.10;99.90;;;;;;5124502;27;20266;-78
2023/07/21 10:49:09;;;;;;;4.53;2.70;;;20.20;99.90;;;;;;5121774;27;20737;-79
2023/07/21 10:51:36;;;;;;;4.07;2.73;;;20.20;99.90;;;;;;5126333;27;20221;-78
2023/07/21 10:54:04;;;;;;;5.22;3.15;;;20.20;99.90;;;;;;5106150;28;20256;-78
2023/07/21 10:56:34;;;;;;;3.73;2.80;;;20.20;99.90;;;;;;5106726;28;20241;-78
2023/07/21 10:59:01;;;;;;;6.07;2.95;;;20.10;99.90;;;;;;5112813;27;20238;-78
2023/07/21 11:01:28;;;;;;;6.03;2.90;;;20.10;99.90;;;;;;5115527;27;20675;-78
2023/07/21 11:03:57;;;;;;;3.78;2.92;;;20.10;99.90;;;;;;5123295;27;21058;-78
2023/07/21 11:06:24;;;;;;;5.17;3.20;;;20.00;99.90;;;;;;5112229;27;20313;-78
2023/07/21 11:08:51;;;;;;;3.35;2.90;;;20.00;99.90;;;;;;5117581;27;20208;-77
2023/07/21 11:11:18;;;;;;;3.80;3.03;;;20.00;99.90;;;;;;5107014;27;20212;-80
2023/07/21 11:13:45;;;;;;;3.03;2.80;;;19.90;99.90;;;;;;5106388;27;20228;-78
2023/07/21 11:16:12;;;;;;;7.37;2.90;;;20.00;99.90;;;;;;5105952;28;20216;-78
2023/07/21 11:18:42;;;;;;;3.40;2.83;;;20.00;99.90;;;;;;5109000;27;20241;-78
2023/07/21 11:21:10;;;;;;;4.50;2.43;;;20.00;99.90;;;;;;5107640;27;20625;-78
2023/07/21 11:23:37;;;;;;;3.10;2.20;;;20.00;99.90;;;;;;5125925;27;20469;-78
2023/07/21 11:26:09;;;;;;;2.50;2.30;;;20.00;99.90;;;;;;5126434;27;20254;-77
2023/07/21 11:28:39;;;;;;;4.87;2.40;;;20.00;99.90;;;;;;5125537;27;20732;-78
2023/07/21 11:31:11;;;;;;;4.07;2.30;;;20.00;99.90;;;;;;5125637;27;20324;-78
2023/07/21 11:33:42;;;;;;;3.00;2.10;;;20.10;99.90;;;;;;5110048;27;20202;-78
2023/07/21 11:36:18;;;;;;;2.00;1.80;;;20.10;99.90;;;;;;5125973;27;20753;-78
2023/07/21 11:38:59;;;;;;;2.33;1.90;;;20.10;99.90;;;;;;5126676;27;20212;-79
2023/07/21 11:41:36;;;;;;;2.40;2.20;;;20.10;99.90;;;;;;5105589;28;21075;-78
2023/07/21 11:44:06;;;;;;;4.73;2.20;;;20.10;99.90;;;;;;5106163;28;20209;-79
2023/07/21 11:46:33;;;;;;;2.57;2.10;;;20.10;99.90;;;;;;5107220;28;20199;-79
2023/07/21 11:49:01;;;;;;;1.73;1.63;;;20.10;99.90;;;;;;5118933;27;20666;-79
2023/07/21 11:51:29;;;;;;;2.50;1.90;;;20.10;99.90;;;;;;5135427;27;20197;-79
2023/07/21 11:53:58;;;;;;;2.20;2.00;;;20.10;99.90;;;;;;5126408;27;20686;-80
2023/07/21 11:56:25;;;;;;;1.67;1.53;;;20.00;99.90;;;;;;5127500;27;20204;-78
2023/07/21 11:58:52;;;;;;;3.80;1.70;;;20.00;99.90;;;;;;5117506;27;20565;-81
2023/07/21 12:01:19;;;;;;;1.90;1.57;;;19.90;99.90;;;;;;5107438;27;20206;-79
2023/07/21 12:03:46;;;;;;;3.57;1.90;;;19.90;99.90;;;;;;5119809;27;20228;-80
2023/07/21 12:06:13;;;;;;;2.07;1.97;;;19.90;99.90;;;;;;5114909;27;20286;-78
2023/07/21 12:08:41;;;;;;;2.13;1.40;;;20.00;99.90;;;;;;5126122;27;20356;-79
2023/07/21 12:11:08;;;;;;;1.70;1.60;;;19.90;99.90;;;;;;5126388;27;20706;-79
2023/07/21 12:13:35;;;;;;;2.43;1.70;;;19.90;99.90;;;;;;5122692;27;20336;-79
2023/07/21 12:16:03;;;;;;;3.70;1.53;;;19.90;99.90;;;;;;5106161;28;20209;-78
2023/07/21 12:18:30;;;;;;;3.50;1.73;;;19.90;99.90;;;;;;5111439;27;20202;-78
2023/07/21 12:20:57;;;;;;;2.73;1.63;;;19.90;99.90;;;;;;5120518;27;20263;-78
2023/07/21 12:23:24;;;;;;;3.50;1.80;;;19.90;99.90;;;;;;5111437;27;20208;-76
2023/07/21 12:25:52;;;;;;;1.93;1.73;;;19.90;99.90;;;;;;5105650;28;20206;-76
2023/07/21 12:28:19;;;;;;;1.60;1.50;;;20.00;99.90;;;;;;5114818;27;20821;-79
2023/07/21 12:30:46;;;;;;;4.80;1.97;;;20.00;99.90;;;;;;5126452;27;20577;-76
2023/07/21 12:33:13;;;;;;;5.07;1.60;;;20.00;99.90;;;;;;5126049;27;20258;-76
2023/07/21 12:35:40;;;;;;;3.87;1.87;;;20.00;99.90;;;;;;5110553;28;20248;-76
2023/07/21 12:38:07;;;;;;;2.83;1.60;;;20.00;99.90;;;;;;5104119;28;20324;-77
2023/07/21 12:40:34;;;;;;;1.80;1.70;;;20.00;99.90;;;;;;5120343;27;20279;-76
2023/07/21 12:43:03;;;;;;;3.15;1.65;;;20.10;99.90;;;;;;5117422;27;20226;-76
2023/07/21 12:45:29;;;;;;;1.73;1.40;;;20.10;99.90;;;;;;5118436;27;20202;-75
2023/07/21 12:47:56;;;;;;;4.43;2.10;;;20.20;99.90;;;;;;5118333;27;20678;-75
2023/07/21 12:50:23;;;;;;;1.80;1.67;;;20.30;99.90;;;;;;5119191;27;20686;-75
2023/07/21 12:52:51;;;;;;;3.83;1.60;;;20.50;99.90;;;;;;5120304;27;20304;-76